createdAt,value
2019-06-25T00:00:49.730Z,6.53
2019-06-25T00:03:19.179Z,9.80
2019-06-25T00:05:48.616Z,8.10
2019-06-25T00:08:18.146Z,6.03
2019-06-25T00:10:47.589Z,6.87
2019-06-25T00:13:17.048Z,8.57
2019-06-25T00:15:46.489Z,8.90
2019-06-25T00:18:15.929Z,9.13
2019-06-25T00:20:45.388Z,8.10
2019-06-25T00:23:14.830Z,7.47
2019-06-25T00:25:44.274Z,7.83
2019-06-25T00:28:13.792Z,9.30
2019-06-25T00:30:43.225Z,8.90
2019-06-25T00:33:12.681Z,7.80
2019-06-25T00:35:42.123Z,6.30
2019-06-25T00:38:11.561Z,7.73
2019-06-25T00:40:41.033Z,7.17
2019-06-25T00:43:10.472Z,5.90
2019-06-25T00:45:39.918Z,7.67
2019-06-25T00:48:09.359Z,8.20
2019-06-25T00:50:38.813Z,6.87
2019-06-25T00:53:08.269Z,8.07
2019-06-25T00:55:37.722Z,6.70
2019-06-25T00:58:07.161Z,8.40
2019-06-25T01:00:36.616Z,9.03
2019-06-25T01:03:07.749Z,7.90
2019-06-25T01:05:37.192Z,8.90
2019-06-25T01:08:06.644Z,5.77
2019-06-25T01:10:36.105Z,7.73
2019-06-25T01:13:05.619Z,10.97
2019-06-25T01:15:35.142Z,9.13
2019-06-25T01:18:04.665Z,7.73
2019-06-25T01:20:34.114Z,8.50
2019-06-25T01:23:03.553Z,7.33
2019-06-25T01:25:33.014Z,8.07
2019-06-25T01:28:02.467Z,9.13
2019-06-25T01:30:31.981Z,5.90
2019-06-25T01:33:01.441Z,8.07
2019-06-25T01:35:30.878Z,6.10
2019-06-25T01:38:00.324Z,6.73
2019-06-25T01:40:29.791Z,6.87
2019-06-25T01:42:59.261Z,6.87
2019-06-25T01:45:28.687Z,6.70
2019-06-25T01:47:58.157Z,6.70
2019-06-25T01:50:27.603Z,8.27
2019-06-25T01:52:57.046Z,7.50
2019-06-25T01:55:26.492Z,8.57
2019-06-25T01:57:56.029Z,9.13
2019-06-25T02:00:26.713Z,6.40
2019-06-25T02:02:56.151Z,8.40
2019-06-25T02:05:25.606Z,7.80
2019-06-25T02:07:55.055Z,11.20
2019-06-25T02:10:25.344Z,6.03
2019-06-25T02:12:54.801Z,10.00
2019-06-25T02:15:24.336Z,9.20
2019-06-25T02:17:53.963Z,7.30
2019-06-25T02:20:23.946Z,8.10
2019-06-25T02:22:53.390Z,7.43
2019-06-25T02:25:23.288Z,7.97
2019-06-25T02:27:52.729Z,8.37
2019-06-25T02:30:22.234Z,8.47
2019-06-25T02:32:51.691Z,7.53
2019-06-25T02:35:21.127Z,7.33
2019-06-25T02:37:50.570Z,6.30
2019-06-25T02:40:20.583Z,7.70
2019-06-25T02:42:50.005Z,6.37
2019-06-25T02:45:19.995Z,8.80
2019-06-25T02:47:49.457Z,7.57
2019-06-25T02:50:19.337Z,8.00
2019-06-25T02:52:48.788Z,9.67
2019-06-25T02:55:18.253Z,8.40
2019-06-25T02:57:47.705Z,7.97
2019-06-25T03:00:17.485Z,6.77
2019-06-25T03:02:47.007Z,8.90
2019-06-25T03:05:16.515Z,5.47
2019-06-25T03:07:45.968Z,7.53
2019-06-25T03:10:15.650Z,7.43
2019-06-25T03:12:45.098Z,8.77
2019-06-25T03:15:14.728Z,10.53
2019-06-25T03:17:44.177Z,8.33
2019-06-25T03:20:26.050Z,5.93
2019-06-25T03:22:55.643Z,9.13
2019-06-25T03:25:25.082Z,8.37
2019-06-25T03:27:54.602Z,10.70
2019-06-25T03:30:24.197Z,6.83
2019-06-25T03:32:53.637Z,7.83
2019-06-25T03:35:23.101Z,8.30
2019-06-25T03:37:52.602Z,7.03
2019-06-25T03:40:41.427Z,7.20
2019-06-25T03:43:10.865Z,10.20
2019-06-25T03:45:40.314Z,9.73
2019-06-25T03:48:09.782Z,7.50
2019-06-25T03:50:39.220Z,8.60
2019-06-25T03:53:08.677Z,8.47
2019-06-25T03:55:38.123Z,8.67
2019-06-25T03:58:07.575Z,8.37
2019-06-25T04:00:37.093Z,8.47
2019-06-25T04:03:06.677Z,8.53
2019-06-25T04:05:36.119Z,7.30
2019-06-25T04:08:05.566Z,8.70
2019-06-25T04:10:35.033Z,6.93
2019-06-25T04:13:04.473Z,10.50
2019-06-25T04:15:33.939Z,9.13
2019-06-25T04:18:03.478Z,9.97
2019-06-25T04:20:32.906Z,9.07
2019-06-25T04:23:02.437Z,9.90
2019-06-25T04:25:31.901Z,8.70
2019-06-25T04:28:01.369Z,9.67
2019-06-25T04:30:30.829Z,7.10
2019-06-25T04:33:00.270Z,7.37
2019-06-25T04:35:29.791Z,8.20
2019-06-25T04:37:59.237Z,9.83
2019-06-25T04:40:28.677Z,8.67
2019-06-25T04:42:58.132Z,9.50
2019-06-25T04:45:27.569Z,10.40
2019-06-25T04:47:57.027Z,8.10
2019-06-25T04:50:26.470Z,11.00
2019-06-25T04:52:55.979Z,8.90
2019-06-25T04:55:25.443Z,9.30
2019-06-25T04:57:54.909Z,10.47
2019-06-25T05:00:25.711Z,8.70
2019-06-25T05:02:55.209Z,9.37
2019-06-25T05:05:24.669Z,9.80
2019-06-25T05:07:54.112Z,7.00
2019-06-25T05:10:23.625Z,7.67
2019-06-25T05:12:52.172Z,9.70
2019-06-25T05:15:21.657Z,8.00
2019-06-25T05:17:51.115Z,10.30
2019-06-25T05:20:21.519Z,11.07
2019-06-25T05:22:51.010Z,8.90
2019-06-25T05:25:21.141Z,13.17
2019-06-25T05:27:51.042Z,11.43
2019-06-25T05:30:21.438Z,9.00
2019-06-25T05:33:04.066Z,10.40
2019-06-25T05:35:24.291Z,7.50
2019-06-25T05:37:54.022Z,8.17
2019-06-25T05:40:23.459Z,7.77
2019-06-25T05:42:52.997Z,7.70
2019-06-25T05:45:23.837Z,10.07
2019-06-25T05:47:53.286Z,9.80
2019-06-25T05:50:22.976Z,10.20
2019-06-25T05:52:52.431Z,9.37
2019-06-25T05:55:21.891Z,11.60
2019-06-25T05:57:51.342Z,10.17
2019-06-25T06:00:21.989Z,8.80
2019-06-25T06:02:51.519Z,7.47
2019-06-25T06:05:21.121Z,8.30
2019-06-25T06:07:50.718Z,8.97
2019-06-25T06:10:20.959Z,8.93
2019-06-25T06:12:50.416Z,8.57
2019-06-25T06:15:21.116Z,11.10
2019-06-25T06:17:58.456Z,13.57
2019-06-25T06:20:27.918Z,11.13
2019-06-25T06:22:57.432Z,12.07
2019-06-25T06:25:26.874Z,10.27
2019-06-25T06:27:56.416Z,9.77
2019-06-25T06:30:26.012Z,7.63
2019-06-25T06:32:55.473Z,9.90
2019-06-25T06:35:24.989Z,8.40
2019-06-25T06:37:54.545Z,8.50
2019-06-25T06:40:23.987Z,10.00
2019-06-25T06:42:53.466Z,9.60
2019-06-25T06:45:22.955Z,8.20
2019-06-25T06:47:52.478Z,12.00
2019-06-25T06:50:22.344Z,8.40
2019-06-25T06:52:51.806Z,7.80
2019-06-25T06:55:21.240Z,10.20
2019-06-25T06:57:50.855Z,9.63
2019-06-25T07:00:21.571Z,8.70
2019-06-25T07:02:51.269Z,7.90
2019-06-25T07:05:21.054Z,9.60
2019-06-25T07:07:50.506Z,9.10
2019-06-25T07:10:21.371Z,8.20
2019-06-25T07:12:51.078Z,9.50
2019-06-25T07:15:21.965Z,8.30
2019-06-25T07:17:51.430Z,7.87
2019-06-25T07:20:32.968Z,9.47
2019-06-25T07:22:52.488Z,8.43
2019-06-25T07:25:21.938Z,11.27
2019-06-25T07:27:52.927Z,9.27
2019-06-25T07:30:24.369Z,12.60
2019-06-25T07:32:55.431Z,7.20
2019-06-25T07:35:25.400Z,9.70
2019-06-25T07:37:54.926Z,12.73
2019-06-25T07:40:24.377Z,8.13
2019-06-25T07:42:54.082Z,10.40
2019-06-25T07:45:23.756Z,11.33
2019-06-25T07:47:53.209Z,9.80
2019-06-25T07:50:22.846Z,10.97
2019-06-25T07:52:52.375Z,13.23
2019-06-25T07:55:22.054Z,9.83
2019-06-25T07:57:51.583Z,7.80
2019-06-25T08:00:21.341Z,8.77
2019-06-25T08:02:50.784Z,6.07
2019-06-25T08:05:20.327Z,9.13
2019-06-25T08:07:49.863Z,9.40
2019-06-25T08:10:20.303Z,7.40
2019-06-25T08:12:49.846Z,12.23
2019-06-25T08:15:19.841Z,9.30
2019-06-25T08:17:49.283Z,9.60
2019-06-25T08:20:19.080Z,11.13
2019-06-25T08:22:48.886Z,10.23
2019-06-25T08:25:18.499Z,9.27
2019-06-25T08:27:47.925Z,14.53
2019-06-25T08:30:18.273Z,8.37
2019-06-25T08:32:47.731Z,8.37
2019-06-25T08:35:17.464Z,7.20
2019-06-25T08:37:46.973Z,8.30
2019-06-25T08:40:19.968Z,8.10
2019-06-25T08:42:47.725Z,8.70
2019-06-25T08:45:20.443Z,9.40
2019-06-25T08:47:50.156Z,9.33
2019-06-25T08:50:20.613Z,9.10
2019-06-25T08:52:57.882Z,11.57
2019-06-25T08:55:21.262Z,11.23
2019-06-25T08:57:50.726Z,11.80
2019-06-25T09:00:20.705Z,9.27
2019-06-25T09:02:50.160Z,8.87
2019-06-25T09:05:19.664Z,9.70
2019-06-25T09:07:49.193Z,7.60
2019-06-25T09:10:18.696Z,8.20
2019-06-25T09:12:48.147Z,8.13
2019-06-25T09:15:19.013Z,12.50
2019-06-25T09:17:51.558Z,11.60
2019-06-25T09:20:20.039Z,10.10
2019-06-25T09:22:49.488Z,11.50
2019-06-25T09:25:18.946Z,9.40
2019-06-25T09:27:48.482Z,10.27
2019-06-25T09:30:18.537Z,9.77
2019-06-25T09:32:48.000Z,9.10
2019-06-25T09:35:20.174Z,7.47
2019-06-25T09:37:48.692Z,8.70
2019-06-25T09:40:16.566Z,8.93
2019-06-25T09:42:44.429Z,9.70
2019-06-25T09:45:12.322Z,11.40
2019-06-25T09:47:45.156Z,9.23
2019-06-25T09:50:13.438Z,12.47
2019-06-25T09:52:42.901Z,10.90
2019-06-25T09:55:14.055Z,16.60
2019-06-25T09:57:43.587Z,16.50
2019-06-25T10:00:13.463Z,10.53
2019-06-25T10:02:42.915Z,14.23
2019-06-25T10:05:12.417Z,12.40
2019-06-25T10:07:41.879Z,7.90
2019-06-25T10:10:11.766Z,7.60
2019-06-25T10:12:41.257Z,10.27
2019-06-25T10:15:10.973Z,18.63
2019-06-25T10:17:40.452Z,9.70
2019-06-25T10:20:10.155Z,11.20
2019-06-25T10:22:39.586Z,12.73
2019-06-25T10:25:09.190Z,13.73
2019-06-25T10:27:38.644Z,9.00
2019-06-25T10:30:08.801Z,9.60
2019-06-25T10:32:38.337Z,10.50
2019-06-25T10:35:08.265Z,12.63
2019-06-25T10:37:37.736Z,10.27
2019-06-25T10:40:26.515Z,10.83
2019-06-25T10:42:55.979Z,12.57
2019-06-25T10:45:25.432Z,7.77
2019-06-25T10:47:54.890Z,10.60
2019-06-25T10:50:24.347Z,11.40
2019-06-25T10:52:53.793Z,9.10
2019-06-25T10:55:23.256Z,10.10
2019-06-25T10:57:52.966Z,9.07
2019-06-25T11:00:47.848Z,15.97
2019-06-25T11:03:17.294Z,10.57
2019-06-25T11:06:00.149Z,9.70
2019-06-25T11:08:18.059Z,17.63
2019-06-25T11:10:47.761Z,9.17
2019-06-25T11:13:17.637Z,13.43
2019-06-25T11:15:47.156Z,9.47
2019-06-25T11:18:16.615Z,13.07
2019-06-25T11:20:46.083Z,20.17
2019-06-25T11:23:15.708Z,12.03
2019-06-25T11:26:03.961Z,14.33
2019-06-25T11:28:16.334Z,10.90
2019-06-25T11:30:45.918Z,12.27
2019-06-25T11:33:15.378Z,17.33
2019-06-25T11:35:44.822Z,11.00
2019-06-25T11:38:14.269Z,17.13
2019-06-25T11:40:43.852Z,11.27
2019-06-25T11:43:13.311Z,11.17
2019-06-25T11:45:42.765Z,20.10
2019-06-25T11:48:12.215Z,9.00
2019-06-25T11:50:42.004Z,14.97
2019-06-25T11:53:11.527Z,10.80
2019-06-25T11:55:40.965Z,12.20
2019-06-25T11:58:10.389Z,18.70
2019-06-25T12:00:39.855Z,9.10
2019-06-25T12:03:09.298Z,14.33
2019-06-25T12:05:38.768Z,8.97
2019-06-25T12:08:08.211Z,10.57
2019-06-25T12:10:37.654Z,21.03
2019-06-25T12:13:07.116Z,9.90
2019-06-25T12:15:36.556Z,18.50
2019-06-25T12:18:06.083Z,10.40
2019-06-25T12:20:35.529Z,12.87
2019-06-25T12:23:04.969Z,20.93
2019-06-25T12:25:34.431Z,11.40
2019-06-25T12:28:03.887Z,13.63
2019-06-25T12:30:33.361Z,11.33
2019-06-25T12:33:02.791Z,11.17
2019-06-25T12:35:32.252Z,22.93
2019-06-25T12:38:01.776Z,13.90
2019-06-25T12:40:31.258Z,14.60
2019-06-25T12:43:00.786Z,9.57
2019-06-25T12:45:32.992Z,12.40
2019-06-25T12:48:01.495Z,11.40
2019-06-25T12:50:30.953Z,11.40
2019-06-25T12:53:00.410Z,15.40
2019-06-25T12:55:29.861Z,10.47
2019-06-25T12:57:59.324Z,9.40
2019-06-25T13:00:28.931Z,8.33
2019-06-25T13:02:58.398Z,8.30
2019-06-25T13:05:27.852Z,10.37
2019-06-25T13:07:57.319Z,9.43
2019-06-25T13:10:42.825Z,11.00
2019-06-25T13:12:58.014Z,10.33
2019-06-25T13:15:27.459Z,11.60
2019-06-25T13:17:57.001Z,11.50
2019-06-25T13:20:26.617Z,13.03
2019-06-25T13:22:56.068Z,12.90
2019-06-25T13:25:25.732Z,9.97
2019-06-25T13:27:55.487Z,11.37
2019-06-25T13:30:24.942Z,11.63
2019-06-25T13:32:54.397Z,12.87
2019-06-25T13:35:23.917Z,11.00
2019-06-25T13:37:53.366Z,9.77
2019-06-25T13:40:23.297Z,10.50
2019-06-25T13:42:52.747Z,10.67
2019-06-25T13:45:22.352Z,13.37
2019-06-25T13:47:51.792Z,12.10
2019-06-25T13:50:21.388Z,11.97
2019-06-25T13:52:50.924Z,16.77
2019-06-25T13:55:20.439Z,15.20
2019-06-25T13:57:50.093Z,12.57
2019-06-25T14:00:21.442Z,14.40
2019-06-25T14:02:50.979Z,13.50
2019-06-25T14:05:21.220Z,12.37
2019-06-25T14:07:59.163Z,13.60
2019-06-25T14:10:22.533Z,14.80
2019-06-25T14:12:52.051Z,15.07
2019-06-25T14:15:22.787Z,20.60
2019-06-25T14:17:52.256Z,19.00
2019-06-25T14:20:21.772Z,19.60
2019-06-25T14:22:51.243Z,20.40
2019-06-25T14:25:20.684Z,21.93
2019-06-25T14:27:50.135Z,22.13
2019-06-25T14:30:20.679Z,23.70
2019-06-25T14:32:50.096Z,25.17
2019-06-25T14:35:20.683Z,21.83
2019-06-25T14:37:50.163Z,20.17
2019-06-25T14:40:19.729Z,20.70
2019-06-25T14:42:49.189Z,23.30
2019-06-25T14:45:20.181Z,24.80
2019-06-25T14:47:49.630Z,30.27
2019-06-25T14:50:19.418Z,24.97
2019-06-25T14:52:49.097Z,25.47
2019-06-25T14:55:19.016Z,27.87
2019-06-25T14:57:48.477Z,25.40
2019-06-25T15:00:19.904Z,23.63
2019-06-25T15:02:49.362Z,23.03
2019-06-25T15:05:18.957Z,24.60
2019-06-25T15:07:48.423Z,20.17
2019-06-25T15:10:18.546Z,20.00
2019-06-25T15:12:47.963Z,24.37
2019-06-25T15:15:31.751Z,24.90
2019-06-25T15:17:49.128Z,21.93
2019-06-25T15:20:19.298Z,20.60
2019-06-25T15:22:48.786Z,25.50
2019-06-25T15:25:18.552Z,24.63
2019-06-25T15:27:48.091Z,23.80
2019-06-25T15:30:20.874Z,25.00
2019-06-25T15:32:50.350Z,23.20
2019-06-25T15:35:19.836Z,25.40
2019-06-25T15:37:49.257Z,22.87
2019-06-25T15:40:18.931Z,23.80
2019-06-25T15:42:48.367Z,25.30
2019-06-25T15:45:17.920Z,27.93
2019-06-25T15:47:47.350Z,25.60
2019-06-25T15:50:17.561Z,23.30
2019-06-25T15:52:47.027Z,24.03
2019-06-25T15:55:16.747Z,25.20
2019-06-25T15:57:46.829Z,26.43
2019-06-25T16:00:18.490Z,21.80
2019-06-25T16:02:47.952Z,25.00
2019-06-25T16:05:17.463Z,22.37
2019-06-25T16:07:46.934Z,25.30
2019-06-25T16:10:16.534Z,22.10
2019-06-25T16:12:45.986Z,22.90
2019-06-25T16:15:15.907Z,24.40
2019-06-25T16:17:45.387Z,25.63
2019-06-25T16:20:15.334Z,25.40
2019-06-25T16:22:44.771Z,27.23
2019-06-25T16:25:14.467Z,29.73
2019-06-25T16:27:43.925Z,23.07
2019-06-25T16:30:15.077Z,24.43
2019-06-25T16:32:44.539Z,24.07
2019-06-25T16:35:15.808Z,25.70
2019-06-25T16:37:45.244Z,21.47
2019-06-25T16:40:14.758Z,21.67
2019-06-25T16:42:44.222Z,25.73
2019-06-25T16:45:13.909Z,46.07
2019-06-25T16:47:43.356Z,26.10
2019-06-25T16:50:14.237Z,24.27
2019-06-25T16:52:43.671Z,30.07
2019-06-25T16:55:14.085Z,45.43
2019-06-25T16:57:43.534Z,31.33
2019-06-25T17:00:13.533Z,53.97
2019-06-25T17:02:53.388Z,18.43
2019-06-25T17:05:14.231Z,28.97
2019-06-25T17:07:43.674Z,20.17
2019-06-25T17:10:13.286Z,18.13
2019-06-25T17:12:42.723Z,22.50
2019-06-25T17:15:12.807Z,34.90
2019-06-25T17:17:42.273Z,21.93
2019-06-25T17:20:12.148Z,21.97
2019-06-25T17:22:41.626Z,24.77
2019-06-25T17:25:11.375Z,40.37
2019-06-25T17:27:50.018Z,24.97
2019-06-25T17:30:12.621Z,21.83
2019-06-25T17:32:42.080Z,22.23
2019-06-25T17:35:11.884Z,42.00
2019-06-25T17:37:41.321Z,20.97
2019-06-25T17:40:11.404Z,23.10
2019-06-25T17:42:40.862Z,20.63
2019-06-25T17:45:10.683Z,34.77
2019-06-25T17:47:40.107Z,23.57
2019-06-25T17:50:10.374Z,20.20
2019-06-25T17:52:39.816Z,21.20
2019-06-25T17:55:10.410Z,34.47
2019-06-25T17:57:39.858Z,22.87
2019-06-25T18:00:10.160Z,19.37
2019-06-25T18:02:39.607Z,20.90
2019-06-25T18:05:09.895Z,24.30
2019-06-25T18:07:39.344Z,17.90
2019-06-25T18:10:10.398Z,18.57
2019-06-25T18:12:39.860Z,17.63
2019-06-25T18:15:09.674Z,25.30
2019-06-25T18:17:39.192Z,14.77
2019-06-25T18:20:09.173Z,16.60
2019-06-25T18:22:38.750Z,17.80
2019-06-25T18:25:08.846Z,23.10
2019-06-25T18:27:38.280Z,14.83
2019-06-25T18:30:09.804Z,13.63
2019-06-25T18:32:39.258Z,14.20
2019-06-25T18:35:09.146Z,21.20
2019-06-25T18:37:38.674Z,12.80
2019-06-25T18:40:22.687Z,13.60
2019-06-25T18:42:40.538Z,14.47
2019-06-25T18:45:10.511Z,18.70
2019-06-25T18:47:40.038Z,14.20
2019-06-25T18:50:09.702Z,14.37
2019-06-25T18:52:39.223Z,11.83
2019-06-25T18:55:08.797Z,17.03
2019-06-25T18:57:38.536Z,17.60
2019-06-25T19:00:08.826Z,12.00
2019-06-25T19:02:38.322Z,11.40
2019-06-25T19:05:07.777Z,15.77
2019-06-25T19:07:37.237Z,12.77
2019-06-25T19:10:07.341Z,15.30
2019-06-25T19:12:36.786Z,13.80
2019-06-25T19:15:09.500Z,18.60
2019-06-25T19:17:38.948Z,12.90
2019-06-25T19:20:08.924Z,14.70
2019-06-25T19:22:38.437Z,15.00
2019-06-25T19:25:08.330Z,17.53
2019-06-25T19:27:37.768Z,15.37
2019-06-25T19:30:08.782Z,11.63
2019-06-25T19:32:38.246Z,13.00
2019-06-25T19:35:07.892Z,17.43
2019-06-25T19:37:37.350Z,11.30
2019-06-25T19:40:09.986Z,13.77
2019-06-25T19:42:39.525Z,12.47
2019-06-25T19:45:09.914Z,17.60
2019-06-25T19:47:49.887Z,14.67
2019-06-25T19:50:17.179Z,13.20
2019-06-25T19:52:42.420Z,16.60
2019-06-25T19:55:12.385Z,15.23
2019-06-25T19:57:41.886Z,12.70
2019-06-25T20:00:12.807Z,12.60
2019-06-25T20:02:42.269Z,12.50
2019-06-25T20:05:12.476Z,22.70
2019-06-25T20:07:41.925Z,12.60
2019-06-25T20:10:11.513Z,12.70
2019-06-25T20:12:41.057Z,11.60
2019-06-25T20:15:11.418Z,22.60
2019-06-25T20:17:41.051Z,12.53
2019-06-25T20:20:10.844Z,15.30
2019-06-25T20:22:40.374Z,15.63
2019-06-25T20:25:10.540Z,20.17
2019-06-25T20:27:40.016Z,13.30
2019-06-25T20:30:10.264Z,11.33
2019-06-25T20:32:39.715Z,11.57
2019-06-25T20:35:09.719Z,18.37
2019-06-25T20:37:39.172Z,12.03
2019-06-25T20:40:08.858Z,14.70
2019-06-25T20:42:38.412Z,11.67
2019-06-25T20:45:11.567Z,19.20
2019-06-25T20:47:40.389Z,15.80
2019-06-25T20:50:11.292Z,16.90
2019-06-25T20:52:40.746Z,18.27
2019-06-25T20:55:10.602Z,24.90
2019-06-25T20:57:40.061Z,14.80
2019-06-25T21:00:09.820Z,12.90
2019-06-25T21:02:39.287Z,12.70
2019-06-25T21:05:10.062Z,18.20
2019-06-25T21:07:39.520Z,11.73
2019-06-25T21:10:09.970Z,11.97
2019-06-25T21:12:39.417Z,13.53
2019-06-25T21:15:09.288Z,18.93
2019-06-25T21:17:38.729Z,12.40
2019-06-25T21:20:09.598Z,13.87
2019-06-25T21:22:39.036Z,12.90
2019-06-25T21:25:09.543Z,18.50
2019-06-25T21:27:38.988Z,13.40
2019-06-25T21:30:11.006Z,11.77
2019-06-25T21:32:40.585Z,13.20
2019-06-25T21:35:10.954Z,18.10
2019-06-25T21:37:40.412Z,11.47
2019-06-25T21:40:10.205Z,15.43
2019-06-25T21:42:39.644Z,11.67
2019-06-25T21:45:09.315Z,19.27
2019-06-25T21:47:38.752Z,11.57
2019-06-25T21:50:09.334Z,12.40
2019-06-25T21:52:38.773Z,13.70
2019-06-25T21:55:08.934Z,22.33
2019-06-25T21:57:38.473Z,13.53
2019-06-25T22:00:14.121Z,12.43
2019-06-25T22:02:45.291Z,12.00
2019-06-25T22:05:15.747Z,11.33
2019-06-25T22:07:45.196Z,11.53
2019-06-25T22:10:16.058Z,12.97
2019-06-25T22:12:45.502Z,13.17
2019-06-25T22:15:17.171Z,14.93
2019-06-25T22:17:46.687Z,14.50
2019-06-25T22:20:17.663Z,13.93
2019-06-25T22:22:47.461Z,14.47
2019-06-25T22:25:17.048Z,16.93
2019-06-25T22:27:46.516Z,13.27
2019-06-25T22:30:17.996Z,13.10
2019-06-25T22:32:47.442Z,13.07
2019-06-25T22:35:17.326Z,13.80
2019-06-25T22:37:46.784Z,12.90
2019-06-25T22:40:17.603Z,14.07
2019-06-25T22:42:47.050Z,11.53
2019-06-25T22:45:16.733Z,13.43
2019-06-25T22:47:46.261Z,13.90
2019-06-25T22:50:16.391Z,14.07
2019-06-25T22:52:46.124Z,14.97
2019-06-25T22:55:15.747Z,13.83
2019-06-25T22:57:45.214Z,12.70
2019-06-25T23:00:15.453Z,12.00
2019-06-25T23:02:44.903Z,12.60
2019-06-25T23:05:14.666Z,16.33
2019-06-25T23:07:44.130Z,12.07
2019-06-25T23:10:14.329Z,13.97
2019-06-25T23:12:53.390Z,14.00
2019-06-25T23:15:15.772Z,15.93
2019-06-25T23:17:45.237Z,14.37
2019-06-25T23:20:15.298Z,13.73
2019-06-25T23:22:45.020Z,14.83
2019-06-25T23:25:14.632Z,16.40
2019-06-25T23:27:44.085Z,15.10
2019-06-25T23:30:14.184Z,13.33
2019-06-25T23:32:43.702Z,14.27
2019-06-25T23:35:13.386Z,21.60
2019-06-25T23:37:43.140Z,13.10
2019-06-25T23:40:12.745Z,16.30
2019-06-25T23:42:42.201Z,12.87
2019-06-25T23:45:12.294Z,29.50
2019-06-25T23:47:41.739Z,16.20
2019-06-25T23:50:12.099Z,15.70
2019-06-25T23:52:41.497Z,14.90
2019-06-25T23:55:12.291Z,28.57
2019-06-25T23:57:41.813Z,15.17
